Time;durP1;ratioP1;P1;durP2;ratioP2;P2;SDS_P1;SDS_P2;PMS_P1;PMS_P2;Temp;Humidity;BMP_temperature;BMP_pressure;BME280_temperature;BME280_humidity;BME280_pressure;Samples;Min_cycle;Max_cycle;Signal;HPM_P1;HPM_P2
2021/06/02 00:00:12;;;;;;;0.70;0.70;;;;;;;13.50;82.03;100041.66;4989878;28;20525;-53
2021/06/02 00:02:47;;;;;;;0.40;0.20;;;;;;;13.44;82.18;100044.59;4983502;28;20551;-53
2021/06/02 00:05:17;;;;;;;0.40;0.30;;;;;;;13.52;81.73;100045.13;4979462;28;20455;-52
2021/06/02 00:07:46;;;;;;;0.40;0.20;;;;;;;13.44;81.74;100049.09;4980591;28;20913;-52
2021/06/02 00:10:15;;;;;;;0.40;0.20;;;;;;;13.48;80.82;100054.22;4986073;28;20796;-53
2021/06/02 00:12:42;;;;;;;0.40;0.20;;;;;;;13.26;81.61;100053.41;4986016;28;20939;-53
2021/06/02 00:15:10;;;;;;;0.60;0.60;;;;;;;13.19;82.11;100060.81;4979889;28;20449;-53
2021/06/02 00:17:37;;;;;;;0.40;0.30;;;;;;;13.05;82.29;100052.50;4979873;28;20443;-53
2021/06/02 00:20:08;;;;;;;0.40;0.20;;;;;;;12.87;82.92;100053.25;4967636;28;20500;-53
2021/06/02 00:22:36;;;;;;;0.40;0.20;;;;;;;12.83;83.86;100049.00;4979946;28;20450;-52
2021/06/02 00:25:04;;;;;;;0.37;0.20;;;;;;;13.00;82.80;100054.47;4980764;28;20457;-53
2021/06/02 00:27:31;;;;;;;0.40;0.20;;;;;;;12.84;83.03;100050.72;4978156;28;20495;-52
2021/06/02 00:30:04;;;;;;;0.40;0.20;;;;;;;12.84;84.03;100053.41;4972779;28;20528;-53
2021/06/02 00:32:32;;;;;;;0.40;0.30;;;;;;;12.85;83.22;100041.78;4985728;28;20449;-53
2021/06/02 00:35:01;;;;;;;0.40;0.20;;;;;;;12.71;83.83;100042.38;4981646;28;20450;-53
2021/06/02 00:37:29;;;;;;;0.40;0.20;;;;;;;13.11;82.32;100051.38;4978841;28;20515;-52
2021/06/02 00:39:56;;;;;;;0.40;0.20;;;;;;;12.98;82.49;100053.69;4982517;28;20533;-53
2021/06/02 00:42:31;;;;;;;0.53;0.47;;;;;;;13.08;82.40;100052.38;4985547;28;20521;-52
2021/06/02 00:44:58;;;;;;;0.30;0.20;;;;;;;13.01;82.09;100046.41;4973076;28;20455;-52
2021/06/02 00:47:26;;;;;;;0.40;0.40;;;;;;;12.86;83.06;100051.53;4981180;28;20494;-53
2021/06/02 00:49:53;;;;;;;0.30;0.20;;;;;;;12.69;83.64;100042.44;4964612;28;20947;-52
2021/06/02 00:52:19;;;;;;;0.30;0.20;;;;;;;12.52;84.72;100046.72;4972823;28;20454;-53
2021/06/02 00:54:46;;;;;;;0.40;0.20;;;;;;;12.53;84.93;100056.47;4984288;28;20453;-52
2021/06/02 00:57:25;;;;;;;0.40;0.20;;;;;;;12.59;85.01;100050.88;4978773;28;20457;-53
2021/06/02 01:00:03;;;;;;;0.40;0.30;;;;;;;12.41;86.13;100049.81;4993990;28;20505;-51
2021/06/02 01:02:31;;;;;;;0.30;0.20;;;;;;;12.48;86.01;100055.78;4974932;28;20454;-51
2021/06/02 01:04:58;;;;;;;0.30;0.20;;;;;;;12.46;85.84;100050.50;4981460;28;20862;-51
2021/06/02 01:07:25;;;;;;;0.30;0.20;;;;;;;12.31;86.54;100046.63;4981854;28;20492;-51
2021/06/02 01:09:56;;;;;;;0.40;0.30;;;;;;;12.35;86.88;100050.06;4974232;28;20450;-51
2021/06/02 01:12:25;;;;;;;0.30;0.20;;;;;;;12.34;86.48;100049.22;4963019;28;20524;-51
2021/06/02 01:14:53;;;;;;;0.40;0.20;;;;;;;12.43;85.90;100047.94;4984975;28;20943;-51
2021/06/02 01:17:23;;;;;;;0.33;0.20;;;;;;;12.37;84.81;100045.53;4982955;28;20453;-51
2021/06/02 01:19:52;;;;;;;0.40;0.20;;;;;;;11.98;86.54;100040.84;4979524;28;20454;-50
2021/06/02 01:22:19;;;;;;;0.40;0.20;;;;;;;12.14;85.62;100049.09;4981629;28;20457;-50
2021/06/02 01:24:46;;;;;;;0.30;0.20;;;;;;;11.64;87.67;100050.97;4977242;28;20628;-51
2021/06/02 01:27:13;;;;;;;0.30;0.20;;;;;;;11.43;89.42;100048.19;4980428;28;20867;-51
2021/06/02 01:29:44;;;;;;;0.53;0.37;;;;;;;11.43;89.82;100053.50;4980058;28;20798;-51
2021/06/02 01:32:32;;;;;;;0.40;0.20;;;;;;;11.52;89.03;100057.63;4975755;28;20880;-51
2021/06/02 01:35:36;;;;;;;0.33;0.20;;;;;;;11.68;88.51;100063.28;4998350;28;20827;-51
2021/06/02 01:38:22;;;;;;;0.30;0.20;;;;;;;11.44;88.91;100067.69;4966818;28;20519;-51
2021/06/02 01:41:04;;;;;;;0.30;0.20;;;;;;;11.41;89.27;100062.47;4978120;28;20473;-51
2021/06/02 01:43:30;;;;;;;0.47;0.30;;;;;;;11.33;89.53;100076.03;4979913;28;20935;-50
2021/06/02 01:46:33;;;;;;;0.40;0.20;;;;;;;11.39;89.21;100075.84;4986341;28;20804;-51
2021/06/02 01:49:27;;;;;;;0.30;0.20;;;;;;;11.39;88.71;100072.31;4987495;28;20532;-50
2021/06/02 01:52:06;;;;;;;0.40;0.33;;;;;;;11.44;88.74;100073.88;4988357;28;20481;-51
2021/06/02 01:55:10;;;;;;;0.40;0.33;;;;;;;11.27;88.94;100070.94;4985472;28;20853;-52
2021/06/02 01:57:36;;;;;;;0.30;0.20;;;;;;;11.15;89.85;100068.69;4988124;28;20486;-51
2021/06/02 02:00:37;;;;;;;1.03;1.03;;;;;;;11.08;90.11;100077.81;4982415;28;20842;-51
2021/06/02 02:03:42;;;;;;;0.30;0.20;;;;;;;11.00;90.06;100063.91;4981753;28;20450;-51
2021/06/02 02:06:41;;;;;;;0.30;0.20;;;;;;;11.12;89.62;100072.34;4979253;28;20503;-51
2021/06/02 02:09:33;;;;;;;0.40;0.30;;;;;;;11.06;89.79;100069.88;4985403;28;20458;-51
2021/06/02 02:12:27;;;;;;;0.30;0.20;;;;;;;10.98;90.29;100069.28;4974216;28;20465;-50
2021/06/02 02:15:18;;;;;;;0.30;0.20;;;;;;;10.87;90.50;100060.78;4981570;28;20504;-51
2021/06/02 02:18:18;;;;;;;0.40;0.30;;;;;;;10.76;90.84;100060.28;4968154;28;20462;-50
2021/06/02 02:20:47;;;;;;;0.37;0.20;;;;;;;10.75;91.69;100062.06;4986615;28;20469;-51
2021/06/02 02:23:24;;;;;;;0.30;0.20;;;;;;;10.89;91.33;100061.59;4980937;28;20942;-50
2021/06/02 02:26:10;;;;;;;0.40;0.30;;;;;;;10.73;91.76;100066.56;4980775;28;20504;-50
2021/06/02 02:28:40;;;;;;;0.40;0.40;;;;;;;10.64;91.93;100072.16;4984884;28;20545;-51
2021/06/02 02:31:21;;;;;;;0.30;0.20;;;;;;;10.55;92.64;100064.47;4987828;28;20975;-50
2021/06/02 02:34:00;;;;;;;0.30;0.20;;;;;;;10.56;92.31;100068.91;4986646;28;20532;-50
2021/06/02 02:37:06;;;;;;;0.40;0.30;;;;;;;10.56;92.01;100069.78;4987398;28;20496;-51
2021/06/02 02:39:42;;;;;;;0.40;0.20;;;;;;;10.49;91.81;100073.53;4987652;28;20446;-51
2021/06/02 02:42:33;;;;;;;0.30;0.23;;;;;;;10.48;91.98;100071.78;4974824;28;20449;-51
2021/06/02 02:45:03;;;;;;;0.40;0.40;;;;;;;10.52;92.21;100069.91;4985676;28;20449;-51
2021/06/02 02:47:47;;;;;;;0.30;0.20;;;;;;;10.35;92.00;100073.09;4980943;28;20528;-51
2021/06/02 02:50:44;;;;;;;0.30;0.20;;;;;;;10.43;92.59;100078.19;4979470;28;20471;-51
2021/06/02 02:53:28;;;;;;;0.30;0.20;;;;;;;10.45;92.45;100089.63;4980189;28;20494;-52
2021/06/02 02:56:03;;;;;;;0.30;0.20;;;;;;;10.77;90.61;100086.81;4974780;28;20454;-50
2021/06/02 02:58:38;;;;;;;6.07;1.80;;;;;;;10.38;92.53;100089.81;4986526;28;20817;-50
2021/06/02 03:01:18;;;;;;;0.40;0.30;;;;;;;10.39;92.57;100096.84;4984417;28;20544;-51
2021/06/02 03:04:28;;;;;;;0.30;0.20;;;;;;;10.53;91.10;100084.94;4980598;28;20449;-50
2021/06/02 03:07:00;;;;;;;0.30;0.20;;;;;;;10.39;92.13;100088.88;4980413;28;20481;-50
2021/06/02 03:09:50;;;;;;;0.30;0.20;;;;;;;10.32;92.20;100086.50;4982055;28;20513;-51
2021/06/02 03:13:01;;;;;;;0.30;0.20;;;;;;;10.46;91.66;100084.28;4972850;28;20507;-52
2021/06/02 03:15:40;;;;;;;0.30;0.20;;;;;;;10.33;92.48;100089.09;4952965;28;20453;-51
2021/06/02 03:18:21;;;;;;;0.63;0.63;;;;;;;10.60;91.44;100083.84;4980373;28;20453;-52
2021/06/02 03:20:57;;;;;;;0.30;0.20;;;;;;;10.73;90.87;100098.47;4980782;28;20471;-51
2021/06/02 03:23:51;;;;;;;0.30;0.20;;;;;;;10.26;92.57;100095.50;4962566;28;20489;-52
2021/06/02 03:26:22;;;;;;;0.30;0.20;;;;;;;10.22;93.03;100093.00;4987460;28;20960;-50
2021/06/02 03:29:13;;;;;;;0.30;0.30;;;;;;;10.12;93.91;100099.44;4985267;28;20962;-50
2021/06/02 03:32:31;;;;;;;0.30;0.20;;;;;;;10.03;93.96;100100.63;5000079;28;20534;-51
2021/06/02 03:35:09;;;;;;;0.67;0.50;;;;;;;9.95;93.89;100102.59;4914770;29;20544;-51
2021/06/02 03:37:44;;;;;;;0.40;0.37;;;;;;;9.99;93.79;100106.91;4931085;29;20456;-51
2021/06/02 03:40:29;;;;;;;0.30;0.20;;;;;;;9.76;94.98;100105.81;4962004;28;20520;-51
2021/06/02 03:43:17;;;;;;;0.40;0.30;;;;;;;9.77;95.96;100096.91;4969835;28;20453;-51
2021/06/02 03:45:53;;;;;;;0.30;0.20;;;;;;;9.89;97.10;100097.50;4988266;28;20494;-51
2021/06/02 03:48:41;;;;;;;0.30;0.20;;;;;;;10.01;96.12;100094.47;4985108;28;20521;-51
2021/06/02 03:51:18;;;;;;;0.30;0.20;;;;;;;10.20;95.82;100106.28;4970264;28;20532;-51
2021/06/02 03:53:45;;;;;;;0.30;0.20;;;;;;;10.17;94.76;100102.84;4979715;28;20445;-51
2021/06/02 03:56:40;;;;;;;0.30;0.20;;;;;;;10.16;95.65;100098.47;4997086;28;20582;-51
2021/06/02 03:59:34;;;;;;;0.30;0.20;;;;;;;10.33;94.77;100098.84;4968492;28;20456;-51
2021/06/02 04:02:21;;;;;;;0.30;0.20;;;;;;;10.01;95.62;100095.34;4977951;28;20501;-51
2021/06/02 04:05:06;;;;;;;0.30;0.20;;;;;;;9.86;96.77;100105.50;4992712;28;20969;-51
2021/06/02 04:07:46;;;;;;;0.60;0.43;;;;;;;10.09;96.08;100103.06;4982578;28;21078;-51
2021/06/02 04:10:25;;;;;;;0.30;0.20;;;;;;;10.18;96.04;100108.13;4985336;28;20489;-51
2021/06/02 04:13:12;;;;;;;0.30;0.20;;;;;;;10.29;95.71;100111.38;4985919;28;20953;-50
2021/06/02 04:15:42;;;;;;;0.30;0.20;;;;;;;10.48;94.72;100113.44;4983388;28;20449;-51
2021/06/02 04:18:10;;;;;;;0.40;0.30;;;;;;;10.53;94.54;100108.84;4975769;28;20806;-51
2021/06/02 04:20:42;;;;;;;0.30;0.20;;;;;;;10.37;96.09;100111.97;4983546;28;20473;-51
2021/06/02 04:23:11;;;;;;;0.30;0.20;;;;;;;10.54;95.89;100105.28;4974148;28;20450;-51
2021/06/02 04:25:39;;;;;;;0.30;0.20;;;;;;;10.47;96.55;100106.41;4984954;28;20508;-51
2021/06/02 04:28:06;;;;;;;0.30;0.20;;;;;;;10.58;97.18;100104.28;4968353;28;20911;-51
2021/06/02 04:30:37;;;;;;;0.30;0.20;;;;;;;11.37;93.91;100108.72;4978075;28;21060;-51
2021/06/02 04:33:05;;;;;;;0.30;0.20;;;;;;;12.17;87.99;100107.59;4960444;28;20466;-51
2021/06/02 04:35:32;;;;;;;0.30;0.20;;;;;;;13.46;82.76;100117.50;5007922;28;20507;-52
2021/06/02 04:37:59;;;;;;;0.30;0.20;;;;;;;13.86;80.06;100111.28;4984520;28;20450;-52
2021/06/02 04:40:28;;;;;;;0.30;0.20;;;;;;;14.60;76.18;100106.06;4985895;28;20496;-52
2021/06/02 04:42:59;;;;;;;3.50;0.77;;;;;;;15.03;73.77;100112.84;4980229;28;20457;-52
2021/06/02 04:45:30;;;;;;;0.30;0.20;;;;;;;15.38;73.03;100111.09;4979341;28;20452;-52
2021/06/02 04:47:58;;;;;;;0.40;0.20;;;;;;;15.50;73.16;100112.28;4983870;28;20521;-53
2021/06/02 04:50:33;;;;;;;0.40;0.30;;;;;;;15.87;71.31;100116.59;4975886;28;21005;-52
2021/06/02 04:53:14;;;;;;;0.40;0.20;;;;;;;16.12;70.64;100117.97;4981466;28;20872;-53
2021/06/02 04:56:18;;;;;;;0.50;0.30;;;;;;;16.00;70.32;100122.16;4985550;28;20446;-53
2021/06/02 04:58:54;;;;;;;0.40;0.20;;;;;;;16.12;70.04;100126.00;4986254;28;20476;-52
2021/06/02 05:01:36;;;;;;;0.40;0.20;;;;;;;15.91;70.32;100118.19;4985750;28;20982;-52
2021/06/02 05:04:24;;;;;;;0.40;0.20;;;;;;;15.81;70.63;100116.06;4983642;28;20572;-52
2021/06/02 05:07:15;;;;;;;0.40;0.20;;;;;;;16.54;68.33;100128.16;4976130;28;20473;-52
2021/06/02 05:09:51;;;;;;;0.40;0.20;;;;;;;16.11;69.44;100129.63;4978588;28;20490;-52
2021/06/02 05:12:30;;;;;;;0.40;0.20;;;;;;;16.71;67.75;100130.78;4983605;28;20885;-52
2021/06/02 05:15:12;;;;;;;0.40;0.40;;;;;;;17.04;66.96;100127.13;4986178;28;20458;-52
2021/06/02 05:18:08;;;;;;;0.40;0.20;;;;;;;17.02;67.79;100127.22;4985936;28;20512;-52
2021/06/02 05:24:02;;;;;;;0.40;0.20;;;;;;;17.27;67.04;100136.53;4966049;28;20466;-52
2021/06/02 05:26:47;;;;;;;0.40;0.27;;;;;;;17.23;66.86;100141.22;4989381;28;20827;-51
2021/06/02 05:29:50;;;;;;;0.40;0.20;;;;;;;17.35;66.31;100145.88;4989608;28;20911;-52
2021/06/02 05:32:38;;;;;;;0.40;0.20;;;;;;;17.79;65.12;100155.81;4989646;28;20507;-52
2021/06/02 05:35:39;;;;;;;0.40;0.20;;;;;;;17.88;65.30;100151.72;4986600;28;20524;-52
2021/06/02 05:38:45;;;;;;;0.70;0.70;;;;;;;17.77;65.17;100150.53;4954626;28;20878;-53
2021/06/02 05:41:53;;;;;;;0.40;0.20;;;;;;;18.56;62.54;100147.41;4989179;28;20836;-54
2021/06/02 05:44:53;;;;;;;1.07;1.07;;;;;;;18.55;62.73;100139.44;4963236;28;20508;-54
2021/06/02 05:48:07;;;;;;;0.40;0.20;;;;;;;18.89;61.80;100147.09;4982808;28;20454;-54
2021/06/02 05:51:12;;;;;;;0.40;0.20;;;;;;;18.78;61.95;100157.72;4996902;28;20539;-54
2021/06/02 05:53:56;;;;;;;0.50;0.40;;;;;;;18.73;62.98;100156.28;4982180;28;20947;-54
2021/06/02 05:56:49;;;;;;;0.73;0.60;;;;;;;19.19;61.36;100146.94;4984053;28;20469;-53
2021/06/02 05:59:37;;;;;;;0.40;0.20;;;;;;;18.63;63.58;100150.56;4973834;28;20445;-54
2021/06/02 06:02:30;;;;;;;0.80;0.70;;;;;;;19.61;62.54;100155.81;4982659;28;20507;-54
2021/06/02 06:05:32;;;;;;;0.40;0.30;;;;;;;19.50;62.70;100161.03;4982358;28;20458;-54
2021/06/02 06:08:20;;;;;;;0.40;0.20;;;;;;;19.74;62.17;100156.72;4941386;29;20578;-54
2021/06/02 06:11:24;;;;;;;0.40;0.20;;;;;;;19.49;62.01;100146.69;4983146;28;20482;-54
2021/06/02 06:14:12;;;;;;;0.40;0.20;;;;;;;19.69;61.25;100147.19;4973724;28;20449;-54
2021/06/02 06:17:10;;;;;;;0.73;0.73;;;;;;;19.64;60.77;100144.81;4982336;28;20477;-55
2021/06/02 06:20:02;;;;;;;0.50;0.30;;;;;;;19.62;60.68;100144.06;4981893;28;20740;-54
2021/06/02 06:22:50;;;;;;;0.40;0.20;;;;;;;20.42;58.90;100144.75;4966662;28;20585;-54
2021/06/02 06:25:43;;;;;;;0.40;0.20;;;;;;;20.58;58.39;100139.13;4991316;28;20978;-55
2021/06/02 06:28:19;;;;;;;0.50;0.30;;;;;;;20.41;58.03;100141.19;4970524;28;20491;-54
2021/06/02 06:30:49;;;;;;;0.40;0.20;;;;;;;20.55;57.64;100136.63;4982173;28;20477;-54
2021/06/02 06:33:18;;;;;;;0.40;0.20;;;;;;;20.39;58.17;100134.13;4986289;28;20501;-55
2021/06/02 06:35:46;;;;;;;0.40;0.20;;;;;;;20.12;58.27;100137.81;4988344;28;20465;-54
2021/06/02 06:38:48;;;;;;;0.40;0.20;;;;;;;19.56;61.86;100124.72;4983635;28;20449;-54
2021/06/02 06:41:18;;;;;;;0.97;0.97;;;;;;;20.17;60.00;100125.88;4951212;28;20469;-54
2021/06/02 06:43:46;;;;;;;0.60;0.60;;;;;;;20.85;58.33;100139.81;4981709;28;20572;-54
2021/06/02 06:46:17;;;;;;;0.83;0.63;;;;;;;20.95;58.65;100134.56;4986254;28;20508;-55
2021/06/02 06:48:49;;;;;;;0.40;0.20;;;;;;;20.62;58.83;100136.09;4988154;28;20497;-54
2021/06/02 06:51:20;;;;;;;0.40;0.20;;;;;;;20.74;58.10;100138.88;4983493;28;20632;-54
2021/06/02 06:53:50;;;;;;;0.60;0.57;;;;;;;21.00;57.26;100132.41;4981497;28;20454;-54
2021/06/02 06:56:19;;;;;;;0.40;0.23;;;;;;;20.95;58.51;100135.44;4983931;28;20521;-53
2021/06/02 06:58:46;;;;;;;0.40;0.20;;;;;;;21.45;56.67;100136.22;4988614;28;20493;-54
2021/06/02 07:01:17;;;;;;;0.50;0.30;;;;;;;21.25;57.68;100131.47;4974201;28;20998;-54
2021/06/02 07:03:49;;;;;;;0.50;0.40;;;;;;;21.76;55.65;100142.84;4988722;28;20492;-55
2021/06/02 07:06:16;;;;;;;0.70;0.70;;;;;;;21.88;55.75;100141.03;4987968;28;20449;-54
2021/06/02 07:08:45;;;;;;;2.40;1.63;;;;;;;21.92;56.33;100147.91;4980981;28;21001;-54
2021/06/02 07:11:17;;;;;;;0.50;0.50;;;;;;;21.51;57.61;100141.16;4981107;28;20906;-54
2021/06/02 07:13:47;;;;;;;0.40;0.20;;;;;;;21.06;58.23;100142.75;4970350;28;20453;-58
2021/06/02 07:16:15;;;;;;;0.40;0.20;;;;;;;21.67;58.41;100148.13;4995988;28;20455;-54
2021/06/02 07:18:45;;;;;;;0.40;0.20;;;;;;;22.40;56.79;100134.25;4985793;28;20462;-55
2021/06/02 07:21:12;;;;;;;0.50;0.30;;;;;;;21.83;57.25;100144.09;4987459;28;21048;-54
2021/06/02 07:23:40;;;;;;;0.40;0.20;;;;;;;22.17;55.54;100142.34;4974840;28;20485;-54
2021/06/02 07:26:07;;;;;;;0.40;0.30;;;;;;;21.79;57.06;100126.38;4987499;28;20560;-54
2021/06/02 07:28:54;;;;;;;0.40;0.20;;;;;;;21.49;58.61;100131.44;4986629;28;20485;-54
2021/06/02 07:31:20;;;;;;;0.50;0.30;;;;;;;22.21;56.97;100124.03;4980922;28;20473;-53
2021/06/02 07:33:47;;;;;;;0.40;0.30;;;;;;;22.09;56.79;100127.69;4981733;28;20454;-54
2021/06/02 07:36:14;;;;;;;0.40;0.30;;;;;;;22.22;57.46;100127.59;4987401;28;20459;-55
2021/06/02 07:38:42;;;;;;;0.50;0.30;;;;;;;22.09;56.56;100136.69;4987164;28;20496;-54
2021/06/02 07:41:09;;;;;;;0.40;0.20;;;;;;;22.13;56.14;100134.59;4987266;28;20470;-54
2021/06/02 07:43:36;;;;;;;0.50;0.30;;;;;;;22.29;55.84;100132.38;4986758;28;20508;-54
2021/06/02 07:46:03;;;;;;;0.40;0.30;;;;;;;22.61;56.61;100134.34;4981192;28;20449;-54
2021/06/02 07:48:30;;;;;;;0.50;0.20;;;;;;;22.77;55.53;100135.69;4980021;28;20497;-55
2021/06/02 07:50:58;;;;;;;0.40;0.20;;;;;;;23.01;54.84;100131.97;4981057;28;20485;-55
2021/06/02 07:53:26;;;;;;;1.17;1.17;;;;;;;23.20;54.24;100142.16;4980129;28;20458;-55
2021/06/02 07:55:53;;;;;;;1.07;1.07;;;;;;;22.68;55.01;100135.59;4985604;28;20513;-55
2021/06/02 07:58:20;;;;;;;0.60;0.33;;;;;;;23.13;54.05;100139.09;4986805;28;20453;-54
2021/06/02 08:00:47;;;;;;;0.40;0.30;;;;;;;23.49;52.99;100137.00;4981665;28;20520;-56
2021/06/02 08:03:13;;;;;;;0.50;0.50;;;;;;;23.11;53.20;100132.94;4980239;28;21026;-55
2021/06/02 08:05:40;;;;;;;0.40;0.20;;;;;;;23.75;52.57;100126.66;4985597;28;20481;-55
2021/06/02 08:08:08;;;;;;;0.40;0.20;;;;;;;23.33;52.94;100134.72;4987158;28;20457;-55
2021/06/02 08:10:35;;;;;;;0.50;0.30;;;;;;;23.49;52.37;100143.28;4981844;28;20470;-54
2021/06/02 08:13:02;;;;;;;37.67;1.07;;;;;;;22.97;52.40;100139.50;4980282;28;20482;-55
2021/06/02 08:15:29;;;;;;;0.60;0.40;;;;;;;23.29;50.74;100134.09;4985297;28;20860;-54
2021/06/02 08:17:57;;;;;;;0.47;0.30;;;;;;;23.44;49.67;100142.81;4986678;28;20501;-55
2021/06/02 08:20:24;;;;;;;0.50;0.20;;;;;;;23.37;48.15;100141.59;4980990;28;20477;-55
2021/06/02 08:22:51;;;;;;;1.53;1.43;;;;;;;23.80;48.61;100135.25;4979942;28;20458;-55
2021/06/02 08:25:18;;;;;;;0.40;0.20;;;;;;;24.19;45.17;100128.22;4983806;28;20453;-55
2021/06/02 08:27:46;;;;;;;0.50;0.30;;;;;;;24.04;48.18;100135.00;4986607;28;20532;-54
2021/06/02 08:30:14;;;;;;;0.50;0.20;;;;;;;23.94;44.95;100141.22;4982853;28;20497;-54
2021/06/02 08:32:41;;;;;;;0.40;0.20;;;;;;;24.17;45.42;100132.94;4979892;28;20519;-55
2021/06/02 08:35:09;;;;;;;0.50;0.20;;;;;;;24.24;43.70;100140.41;4983114;28;20921;-55
2021/06/02 08:37:37;;;;;;;0.73;0.73;;;;;;;24.05;44.50;100148.44;4982696;28;20455;-55
2021/06/02 08:40:05;;;;;;;0.40;0.20;;;;;;;24.24;44.16;100143.13;4974537;28;20942;-54
2021/06/02 08:42:32;;;;;;;0.50;0.27;;;;;;;24.86;44.01;100144.00;4979888;28;20448;-55
2021/06/02 08:45:00;;;;;;;0.40;0.20;;;;;;;24.49;42.90;100139.13;4982020;28;20484;-54
2021/06/02 08:47:26;;;;;;;0.50;0.30;;;;;;;24.56;40.65;100144.03;4986146;28;20450;-54
2021/06/02 08:49:53;;;;;;;0.50;0.30;;;;;;;24.65;42.25;100143.19;4972937;28;20914;-55
2021/06/02 08:52:21;;;;;;;0.50;0.20;;;;;;;24.41;41.63;100147.13;4986559;28;20447;-54
2021/06/02 08:54:48;;;;;;;0.50;0.30;;;;;;;24.40;42.33;100145.41;4984987;28;20464;-55
2021/06/02 08:57:16;;;;;;;0.50;0.20;;;;;;;25.05;42.04;100140.47;4998088;28;20511;-55
2021/06/02 08:59:42;;;;;;;0.50;0.20;;;;;;;24.85;39.13;100152.28;4984399;28;20489;-55
2021/06/02 09:02:10;;;;;;;5.50;1.17;;;;;;;24.22;38.85;100153.25;4990020;28;20489;-54
2021/06/02 09:04:36;;;;;;;0.50;0.30;;;;;;;24.35;39.79;100149.50;4989375;28;20503;-54
2021/06/02 09:07:05;;;;;;;0.50;0.30;;;;;;;24.63;38.56;100146.03;4983648;28;21007;-55
2021/06/02 09:09:32;;;;;;;0.50;0.40;;;;;;;24.41;39.33;100136.25;4983832;28;20494;-55
2021/06/02 09:12:04;;;;;;;0.40;0.20;;;;;;;25.06;39.85;100134.03;4990012;28;20900;-55
2021/06/02 09:14:35;;;;;;;0.47;0.20;;;;;;;25.27;39.24;100132.06;4989895;28;20460;-55
2021/06/02 09:17:10;;;;;;;0.50;0.20;;;;;;;25.21;38.23;100134.47;4984529;28;20540;-55
2021/06/02 09:19:50;;;;;;;0.47;0.20;;;;;;;24.70;41.52;100140.94;4983255;28;20492;-55
2021/06/02 09:22:19;;;;;;;0.47;0.20;;;;;;;24.76;40.68;100133.06;4985927;28;20508;-55
2021/06/02 09:24:59;;;;;;;0.50;0.30;;;;;;;24.90;39.56;100137.25;4989967;28;20514;-55
2021/06/02 09:27:41;;;;;;;0.40;0.20;;;;;;;25.44;38.84;100140.53;4989631;28;20456;-55
2021/06/02 09:30:10;;;;;;;0.40;0.20;;;;;;;25.40;39.38;100139.97;4988077;28;20501;-55
2021/06/02 09:32:45;;;;;;;0.50;0.30;;;;;;;24.86;41.17;100137.69;4989358;28;20511;-54
2021/06/02 09:35:13;;;;;;;0.60;0.47;;;;;;;24.96;40.45;100136.72;4986909;28;20445;-54
2021/06/02 09:37:51;;;;;;;0.60;0.30;;;;;;;25.08;38.37;100132.91;4982917;28;20488;-54
2021/06/02 09:40:25;;;;;;;0.50;0.20;;;;;;;25.33;37.22;100134.22;4983842;28;20506;-55
2021/06/02 09:42:52;;;;;;;0.50;0.30;;;;;;;25.04;37.22;100125.16;4983259;28;20508;-55
2021/06/02 09:45:18;;;;;;;0.50;0.30;;;;;;;25.44;37.88;100133.22;4982806;28;20532;-54
2021/06/02 09:47:47;;;;;;;0.50;0.30;;;;;;;25.85;36.15;100133.94;4988931;28;20513;-55
2021/06/02 09:50:37;;;;;;;0.40;0.20;;;;;;;26.24;34.77;100134.72;4977262;28;20529;-55
2021/06/02 09:53:08;;;;;;;0.50;0.30;;;;;;;26.30;34.01;100136.84;4985074;28;20450;-55
2021/06/02 09:55:40;;;;;;;0.50;0.27;;;;;;;26.28;33.77;100131.53;4994653;28;20445;-55
2021/06/02 09:58:07;;;;;;;0.50;0.20;;;;;;;26.47;34.33;100121.63;4982150;28;20449;-55
2021/06/02 10:00:45;;;;;;;0.47;0.20;;;;;;;26.18;33.90;100130.75;4977721;28;20525;-55
2021/06/02 10:03:16;;;;;;;0.50;0.20;;;;;;;26.22;34.01;100134.88;4989706;28;20449;-55
2021/06/02 10:05:51;;;;;;;0.47;0.20;;;;;;;26.94;33.08;100132.44;4984291;28;20445;-55
2021/06/02 10:08:33;;;;;;;0.50;0.40;;;;;;;26.83;32.38;100133.50;4982328;28;20826;-55
2021/06/02 10:11:18;;;;;;;0.50;0.30;;;;;;;26.82;33.05;100131.78;4983445;28;20508;-55
2021/06/02 10:13:50;;;;;;;0.50;0.20;;;;;;;26.51;32.97;100131.22;4972410;28;20453;-55
2021/06/02 10:16:34;;;;;;;0.50;0.50;;;;;;;26.37;32.88;100134.44;4982520;28;20450;-55
2021/06/02 10:19:02;;;;;;;0.50;0.30;;;;;;;26.72;33.42;100130.97;4985125;28;20454;-55
2021/06/02 10:21:52;;;;;;;0.50;0.20;;;;;;;27.07;32.68;100133.81;4980575;28;20470;-55
2021/06/02 10:24:19;;;;;;;0.50;0.23;;;;;;;27.04;32.04;100127.81;4982265;28;20453;-55
2021/06/02 10:26:47;;;;;;;0.50;0.23;;;;;;;26.60;30.30;100141.25;4986699;28;20501;-55
2021/06/02 10:29:13;;;;;;;0.50;0.30;;;;;;;26.61;31.60;100137.50;4988832;28;20485;-54
2021/06/02 10:31:40;;;;;;;0.50;0.30;;;;;;;26.31;31.77;100135.84;4975508;28;20478;-55
2021/06/02 10:34:08;;;;;;;0.87;0.77;;;;;;;27.06;32.20;100131.25;4988508;28;20457;-55
2021/06/02 10:36:36;;;;;;;0.47;0.30;;;;;;;26.88;31.30;100130.34;4984445;28;20424;-54
2021/06/02 10:39:07;;;;;;;0.50;0.27;;;;;;;26.84;31.33;100127.03;4981761;28;20451;-55
2021/06/02 10:41:45;;;;;;;0.53;0.43;;;;;;;26.63;31.66;100132.75;4985292;28;20474;-55
2021/06/02 10:44:17;;;;;;;0.50;0.20;;;;;;;26.81;30.27;100130.94;4988229;28;20489;-55
2021/06/02 10:46:47;;;;;;;0.50;0.30;;;;;;;26.72;31.41;100130.97;4987867;28;20847;-55
2021/06/02 10:49:26;;;;;;;0.50;0.30;;;;;;;26.99;30.96;100136.41;4962879;28;20513;-55
2021/06/02 10:51:55;;;;;;;0.60;0.30;;;;;;;27.09;31.39;100130.94;5035638;22;20507;-53
2021/06/02 10:54:36;;;;;;;0.47;0.27;;;;;;;27.08;31.90;100141.00;5029035;28;20447;-53
2021/06/02 10:57:03;;;;;;;0.40;0.20;;;;;;;26.66;30.54;100129.72;5027830;28;20513;-53
2021/06/02 10:59:37;;;;;;;0.50;0.30;;;;;;;26.91;30.96;100128.16;5023949;28;20564;-53
2021/06/02 11:02:09;;;;;;;0.50;0.30;;;;;;;27.02;31.39;100132.56;5027291;28;20840;-53
2021/06/02 11:04:41;;;;;;;0.50;0.30;;;;;;;27.24;31.17;100125.81;5024948;28;20514;-53
2021/06/02 11:07:15;;;;;;;0.50;0.30;;;;;;;27.36;31.40;100119.97;5040376;28;20459;-53
2021/06/02 11:10:05;;;;;;;0.50;0.30;;;;;;;27.24;30.93;100123.94;5032405;28;20879;-53
2021/06/02 11:12:51;;;;;;;0.50;0.20;;;;;;;26.95;30.69;100120.50;5025039;28;20447;-52
2021/06/02 11:15:41;;;;;;;0.50;0.30;;;;;;;27.48;29.74;100123.31;5021025;28;20447;-53
2021/06/02 11:18:11;;;;;;;0.50;0.30;;;;;;;27.89;28.85;100119.09;5011684;28;20882;-53
2021/06/02 11:20:52;;;;;;;0.50;0.30;;;;;;;27.51;29.76;100114.81;5021568;28;20527;-53
2021/06/02 11:23:21;;;;;;;0.60;0.60;;;;;;;27.38;29.43;100109.72;5033072;28;20789;-54
2021/06/02 11:25:48;;;;;;;0.50;0.30;;;;;;;27.39;29.83;100110.59;5033157;28;20868;-53
2021/06/02 11:28:43;;;;;;;0.47;0.20;;;;;;;27.94;29.75;100121.31;5019974;28;20451;-53
2021/06/02 11:31:26;;;;;;;0.50;0.30;;;;;;;26.77;30.50;100113.16;5019759;28;20499;-53
2021/06/02 11:34:38;;;;;;;0.50;0.30;;;;;;;27.00;31.08;100115.44;5020685;28;20449;-53
2021/06/02 11:37:07;;;;;;;0.60;0.40;;;;;;;27.49;30.84;100113.25;5024510;28;20460;-52
2021/06/02 11:39:37;;;;;;;0.60;0.40;;;;;;;27.95;29.82;100118.44;5019976;28;20478;-53
2021/06/02 11:42:05;;;;;;;0.70;0.40;;;;;;;27.79;29.70;100110.13;5020209;28;20469;-53
2021/06/02 11:44:34;;;;;;;0.40;0.30;;;;;;;27.87;27.96;100112.06;5020040;28;20458;-53
2021/06/02 11:47:02;;;;;;;0.50;0.30;;;;;;;27.89;27.78;100108.16;5019751;28;20498;-53
2021/06/02 11:49:36;;;;;;;0.60;0.40;;;;;;;27.89;28.08;100107.31;5041574;28;20607;-53
2021/06/02 11:52:09;;;;;;;0.97;0.97;;;;;;;27.74;28.24;100107.88;5033426;28;20534;-53
2021/06/02 11:55:06;;;;;;;0.50;0.30;;;;;;;27.56;27.49;100111.63;5029992;28;20462;-53
2021/06/02 11:57:41;;;;;;;0.97;0.97;;;;;;;27.87;28.27;100110.19;5025052;28;20459;-53
2021/06/02 12:00:14;;;;;;;0.50;0.30;;;;;;;27.83;28.36;100106.06;5018274;28;22334;-53
2021/06/02 12:02:42;;;;;;;0.50;0.20;;;;;;;27.29;27.89;100110.69;5022287;28;20499;-53
2021/06/02 12:05:13;;;;;;;0.50;0.30;;;;;;;27.47;27.77;100105.22;5024971;28;20803;-53
2021/06/02 12:07:55;;;;;;;5.30;1.83;;;;;;;27.63;27.94;100101.78;5025174;28;20451;-53
2021/06/02 12:10:26;;;;;;;0.80;0.80;;;;;;;27.99;28.15;100098.00;5025609;28;20495;-53